Portada
METAR-TAF:

METAR-TAF

Aeroports :

São José dos Campos, São Paulo, Brasil

latitud: 23-14S, longitud: 045-52W, altitud: 646 m

Observació

L'informe es va fer fa 14 minuts, a les 21:00 UTC
Vent 5 kt del Sud-Est
Temperatura 22°C
Humitat 46%
Pressió 1025 hPa
Visibilitat 10 km o més
sense núvols per sota de 1500 mi sense presència de cumulonimbus.

METAR: SBSJ 072100Z 13005KT CAVOK 22/10 Q1025

Hora: 18:14 (21:14 UTC)

Pronòstic

L'informe es va fer fa 6 hores i 14 minuts, a les 15:00 UTC
Pronòstic vàlid del 07 a les 18 UTC al 08 a les 06 UTC
Vent 4 kt del Sud-Est
Visibilitat 10 km o més
sense núvols per sota de 1500 mi sense presència de cumulonimbus.

TAF: SBSJ 071500Z 0718/0806 14004KT CAVOK TX26/0718Z TN12/0803Z RMK PEA

Observacions i pronòstics meteorològics de més de 4000 aeroports (METAR i TAF).

Les estacions disponibles són els punts grocs i vermells al mapa.

Posi el ratolí al punt desitjat per veure el nom de l'estació.

Feu clic per veure les observacions i els pronòstics meteorològics.

Per canviar el mapa: feu clic els botons verds amb una creu de color negre per apropar; al botó verd amb un guió per allunyar la imatge; o en les fletxes verdes per a mapes adjacents.


METAR-TAF: